Time;durP1;ratioP1;P1;durP2;ratioP2;P2;SDS_P1;SDS_P2;PMS_P1;PMS_P2;Temp;Humidity;BMP_temperature;BMP_pressure;BME280_temperature;BME280_humidity;BME280_pressure;Samples;Min_cycle;Max_cycle;Signal;HPM_P1;HPM_P2
2022/02/01 00:01:51;;;;;;;3.60;1.60;;;6.40;99.90;;;;;;5030675;28;20475;-67
2022/02/01 00:04:32;;;;;;;3.40;1.67;;;6.40;99.90;;;;;;5034711;28;20478;-67
2022/02/01 00:35:44;;;;;;;3.47;1.53;;;6.50;99.90;;;;;;5036032;28;20442;-67
2022/02/01 00:40:37;;;;;;;6.47;1.63;;;6.50;99.90;;;;;;5041635;28;20446;-68
2022/02/01 00:43:05;;;;;;;3.53;1.63;;;6.40;99.90;;;;;;5043926;28;20646;-68
2022/02/01 00:45:31;;;;;;;2.17;1.50;;;6.40;99.90;;;;;;5040731;28;20811;-68
2022/02/01 00:47:57;;;;;;;2.97;1.70;;;6.50;99.90;;;;;;5040571;28;20496;-68
2022/02/01 00:50:23;;;;;;;4.60;1.80;;;6.50;99.90;;;;;;5044075;28;20443;-69
2022/02/01 00:52:48;;;;;;;5.53;1.70;;;6.50;99.90;;;;;;5038318;28;20210;-69
2022/02/01 00:55:14;;;;;;;4.63;1.90;;;6.60;99.90;;;;;;5039106;28;20585;-68
2022/02/01 00:57:40;;;;;;;2.70;1.83;;;6.50;99.90;;;;;;5039584;28;20188;-68
2022/02/01 01:00:09;;;;;;;3.40;1.67;;;6.60;99.90;;;;;;5042150;28;20190;-68
2022/02/01 01:02:35;;;;;;;3.17;2.10;;;6.60;99.90;;;;;;5040333;28;20634;-68
2022/02/01 01:05:01;;;;;;;4.87;1.87;;;6.60;99.90;;;;;;5039879;28;20471;-68
2022/02/01 01:07:27;;;;;;;2.17;1.37;;;6.60;99.90;;;;;;5044581;28;20442;-68
2022/02/01 01:09:54;;;;;;;4.93;2.20;;;6.70;99.90;;;;;;5039247;28;20445;-68
2022/02/01 01:12:20;;;;;;;5.83;2.07;;;6.70;99.90;;;;;;5037417;28;20295;-68
2022/02/01 01:44:38;;;;;;;7.23;1.73;;;6.80;99.90;;;;;;5041186;28;20499;-68
2022/02/01 01:55:35;;;;;;;7.30;2.83;;;6.70;99.90;;;;;;4998302;28;20967;-67
2022/02/01 01:58:02;;;;;;;4.70;1.93;;;6.70;99.90;;;;;;5032091;28;20434;-67
2022/02/01 02:03:05;;;;;;;6.23;2.20;;;6.70;99.90;;;;;;5039533;28;21199;-67
2022/02/01 02:05:31;;;;;;;8.20;2.50;;;6.60;99.90;;;;;;5040079;28;20584;-67
2022/02/01 02:07:57;;;;;;;4.03;1.57;;;6.60;99.90;;;;;;5040769;28;20194;-66
2022/02/01 02:10:29;;;;;;;4.50;1.90;;;6.50;99.90;;;;;;5040964;28;20263;-67
2022/02/01 02:13:04;;;;;;;3.03;1.90;;;6.50;99.90;;;;;;5044391;28;20459;-67
2022/02/01 02:15:47;;;;;;;4.70;2.13;;;6.50;99.90;;;;;;5041677;28;20438;-67
2022/02/01 02:18:13;;;;;;;7.50;2.27;;;6.50;99.90;;;;;;5044521;28;20883;-67
2022/02/01 02:20:41;;;;;;;5.27;2.20;;;6.60;99.90;;;;;;5040344;28;20537;-67
2022/02/01 02:23:08;;;;;;;9.97;2.40;;;6.50;99.90;;;;;;5040783;28;20239;-66
2022/02/01 02:25:38;;;;;;;6.60;2.30;;;6.60;99.90;;;;;;5040866;28;20541;-67
2022/02/01 02:28:04;;;;;;;13.97;3.07;;;6.60;99.90;;;;;;5036678;28;20435;-67
2022/02/01 02:30:30;;;;;;;8.33;2.47;;;6.70;99.90;;;;;;5040915;28;20442;-67
2022/02/01 02:33:05;;;;;;;7.20;2.50;;;6.70;99.90;;;;;;5040788;28;20451;-67
2022/02/01 02:35:34;;;;;;;6.60;2.97;;;6.60;99.90;;;;;;5043267;28;20194;-68
2022/02/01 02:38:08;;;;;;;9.33;2.40;;;6.60;99.90;;;;;;5036082;28;20434;-67
2022/02/01 02:41:04;;;;;;;5.50;2.30;;;6.50;99.90;;;;;;5035438;28;20994;-67
2022/02/01 02:46:04;;;;;;;12.43;3.17;;;6.50;99.90;;;;;;5040006;28;20985;-67
2022/02/01 02:48:29;;;;;;;10.33;2.40;;;6.50;99.90;;;;;;5038662;28;20434;-67
2022/02/01 02:50:55;;;;;;;5.90;2.20;;;6.40;99.90;;;;;;5041311;28;20572;-67
2022/02/01 02:53:20;;;;;;;10.87;2.73;;;6.40;99.90;;;;;;5039785;28;20281;-67
2022/02/01 02:55:46;;;;;;;3.93;1.97;;;6.40;99.90;;;;;;5023321;28;20183;-67
2022/02/01 02:58:12;;;;;;;4.00;2.23;;;6.40;99.90;;;;;;5039176;28;20650;-67
2022/02/01 03:00:38;;;;;;;12.90;2.63;;;6.40;99.90;;;;;;5040516;28;20192;-67
2022/02/01 03:03:04;;;;;;;5.60;2.53;;;6.40;99.90;;;;;;5045376;28;20226;-67
2022/02/01 03:05:30;;;;;;;12.37;2.47;;;6.40;99.90;;;;;;5035796;28;20825;-67
2022/02/01 03:07:55;;;;;;;9.73;2.47;;;6.30;99.90;;;;;;5039417;28;20545;-66
2022/02/01 03:10:21;;;;;;;7.40;2.30;;;6.30;99.90;;;;;;5039293;28;20270;-67
2022/02/01 03:20:43;;;;;;;8.93;2.63;;;6.20;99.90;;;;;;5038478;28;20246;-67
2022/02/01 03:23:09;;;;;;;5.30;2.33;;;6.20;99.90;;;;;;5039831;28;20869;-67
2022/02/01 03:25:35;;;;;;;9.70;2.50;;;6.20;99.90;;;;;;5040912;28;20247;-67
2022/02/01 03:28:01;;;;;;;7.00;2.63;;;6.20;99.90;;;;;;5039030;28;20184;-67
2022/02/01 03:30:26;;;;;;;18.50;3.07;;;6.10;99.90;;;;;;5038093;28;20241;-67
2022/02/01 03:32:52;;;;;;;8.67;2.40;;;6.20;99.90;;;;;;5043720;28;20231;-67
2022/02/01 03:35:18;;;;;;;9.80;2.63;;;6.20;99.90;;;;;;5037294;28;20183;-67
2022/02/01 03:37:44;;;;;;;8.73;2.67;;;6.30;99.90;;;;;;5034031;28;21796;-68
2022/02/01 03:40:15;;;;;;;19.87;5.03;;;6.40;99.90;;;;;;5041199;28;20183;-67
2022/02/01 03:42:40;;;;;;;8.63;2.50;;;6.40;99.90;;;;;;5039463;28;20212;-66
2022/02/01 03:45:06;;;;;;;9.07;2.60;;;6.20;99.90;;;;;;5037461;28;20481;-66
2022/02/01 03:47:32;;;;;;;12.10;3.60;;;6.10;99.90;;;;;;5036626;28;20184;-66
2022/02/01 03:49:59;;;;;;;6.50;2.90;;;6.10;99.90;;;;;;5037915;28;20214;-67
2022/02/01 03:52:25;;;;;;;16.40;2.93;;;6.10;99.90;;;;;;5039272;28;20577;-67
2022/02/01 03:54:51;;;;;;;9.33;2.63;;;6.10;99.90;;;;;;5037293;28;20450;-67
2022/02/01 03:57:17;;;;;;;9.67;2.70;;;5.90;99.90;;;;;;5038096;28;20434;-67
2022/02/01 03:59:46;;;;;;;8.27;3.23;;;5.90;99.90;;;;;;5035627;28;20450;-67
2022/02/01 04:02:14;;;;;;;6.70;2.90;;;5.90;99.90;;;;;;5038143;28;20564;-67
2022/02/01 04:04:40;;;;;;;6.50;2.77;;;5.90;99.90;;;;;;5037521;28;20467;-66
2022/02/01 04:07:07;;;;;;;9.00;3.10;;;5.80;99.90;;;;;;5039867;28;20430;-66
2022/02/01 04:09:34;;;;;;;8.30;2.93;;;5.70;99.90;;;;;;5037748;28;20604;-67
2022/02/01 04:12:03;;;;;;;10.87;2.87;;;5.80;99.90;;;;;;5036478;28;20448;-67
2022/02/01 04:14:32;;;;;;;5.27;2.33;;;5.80;99.90;;;;;;5035866;28;20525;-67
2022/02/01 04:17:00;;;;;;;12.67;2.90;;;5.90;99.90;;;;;;5036811;28;20504;-67
2022/02/01 04:19:28;;;;;;;17.47;2.83;;;5.80;99.90;;;;;;5038200;28;20441;-67
2022/02/01 04:24:19;;;;;;;7.20;2.50;;;5.90;99.90;;;;;;5035982;28;20843;-67
2022/02/01 04:26:45;;;;;;;15.57;2.93;;;6.00;99.90;;;;;;5034484;28;20637;-67
2022/02/01 04:29:11;;;;;;;7.77;2.73;;;6.10;99.90;;;;;;5036918;28;20374;-67
2022/02/01 04:31:36;;;;;;;13.00;3.63;;;6.10;99.90;;;;;;5033711;28;20192;-67
2022/02/01 04:34:02;;;;;;;9.00;2.80;;;5.90;99.90;;;;;;5037142;28;20199;-67
2022/02/01 04:36:27;;;;;;;9.53;2.93;;;5.90;99.90;;;;;;5036233;28;20198;-67
2022/02/01 04:38:57;;;;;;;12.63;2.53;;;5.90;99.90;;;;;;5039036;28;20187;-67
2022/02/01 04:41:27;;;;;;;11.57;2.53;;;5.90;99.90;;;;;;5039533;28;20275;-67
2022/02/01 04:43:54;;;;;;;8.53;2.70;;;5.70;99.90;;;;;;5035950;28;20472;-67
2022/02/01 04:46:21;;;;;;;10.90;2.80;;;5.80;99.90;;;;;;5038101;28;20435;-67
2022/02/01 04:48:48;;;;;;;8.93;2.63;;;5.90;99.90;;;;;;5037398;28;20442;-66
2022/02/01 04:51:18;;;;;;;12.13;2.93;;;5.80;99.90;;;;;;5038258;28;20430;-67
2022/02/01 04:53:45;;;;;;;17.83;3.20;;;6.00;99.90;;;;;;5038505;28;20820;-67
2022/02/01 04:56:11;;;;;;;15.27;2.67;;;5.80;99.90;;;;;;5037335;28;20516;-68
2022/02/01 04:58:36;;;;;;;10.90;2.80;;;5.80;99.90;;;;;;5038462;28;20627;-68
2022/02/01 05:01:03;;;;;;;8.07;2.87;;;5.80;99.90;;;;;;5037932;28;20824;-68
2022/02/01 05:03:28;;;;;;;10.80;3.30;;;5.80;99.90;;;;;;5038917;28;20220;-68
2022/02/01 05:05:56;;;;;;;5.40;2.20;;;5.80;99.90;;;;;;5037304;28;21082;-67
2022/02/01 05:08:24;;;;;;;15.23;3.17;;;5.70;99.90;;;;;;5036800;28;20273;-68
2022/02/01 05:10:49;;;;;;;6.00;2.47;;;5.60;99.90;;;;;;5037831;28;20812;-68
2022/02/01 05:15:41;;;;;;;7.50;2.27;;;5.60;99.90;;;;;;5039976;28;20180;-68
2022/02/01 05:18:13;;;;;;;10.70;3.43;;;5.60;99.90;;;;;;5038646;28;20575;-68
2022/02/01 05:20:49;;;;;;;7.80;2.50;;;5.60;99.90;;;;;;5039055;28;20505;-68
2022/02/01 05:23:17;;;;;;;7.07;2.90;;;5.50;99.90;;;;;;5037236;28;20453;-69
2022/02/01 05:25:43;;;;;;;6.90;2.37;;;5.50;99.90;;;;;;5039579;28;20469;-68
2022/02/01 05:28:09;;;;;;;6.93;2.37;;;5.40;99.90;;;;;;5041644;28;20535;-68
2022/02/01 05:30:35;;;;;;;11.57;2.80;;;5.40;99.90;;;;;;5041079;28;20473;-68
2022/02/01 05:33:01;;;;;;;10.90;2.60;;;5.40;99.90;;;;;;5039055;28;20545;-68
2022/02/01 05:35:27;;;;;;;9.83;2.93;;;5.40;99.90;;;;;;5040627;28;20194;-68
2022/02/01 05:37:53;;;;;;;9.57;2.63;;;5.40;99.90;;;;;;5040227;28;20449;-68
2022/02/01 05:40:19;;;;;;;6.07;2.80;;;5.30;99.90;;;;;;5039708;28;20836;-67
2022/02/01 05:43:11;;;;;;;8.47;2.57;;;5.30;99.90;;;;;;5042411;28;20214;-68
2022/02/01 05:45:36;;;;;;;10.80;2.80;;;5.30;99.90;;;;;;5039572;28;21005;-68
2022/02/01 05:48:03;;;;;;;9.83;2.37;;;5.30;99.90;;;;;;5035904;28;20453;-68
2022/02/01 05:50:29;;;;;;;9.30;2.93;;;5.40;99.90;;;;;;5040387;28;20571;-68
2022/02/01 05:52:55;;;;;;;14.40;2.30;;;5.20;99.90;;;;;;5040261;28;20797;-68
2022/02/01 05:55:21;;;;;;;6.13;2.13;;;5.30;99.90;;;;;;5041465;28;20446;-68
2022/02/01 05:57:46;;;;;;;10.90;3.63;;;5.30;99.90;;;;;;5041101;28;20207;-68
2022/02/01 06:00:13;;;;;;;8.07;2.80;;;5.40;99.90;;;;;;5036841;28;20199;-68
2022/02/01 06:02:39;;;;;;;11.13;3.20;;;5.40;99.90;;;;;;5038083;28;20277;-68
2022/02/01 06:05:05;;;;;;;11.20;2.93;;;5.40;99.90;;;;;;5037330;28;20931;-68
2022/02/01 06:07:30;;;;;;;7.83;2.70;;;5.40;99.90;;;;;;5042215;28;20187;-68
2022/02/01 06:09:56;;;;;;;17.20;3.07;;;5.40;99.90;;;;;;5040739;28;20804;-68
2022/02/01 06:12:21;;;;;;;13.93;2.93;;;5.40;99.90;;;;;;5039555;28;20211;-68
2022/02/01 06:14:47;;;;;;;6.53;3.70;;;5.40;99.90;;;;;;5035542;28;20199;-68
2022/02/01 06:17:12;;;;;;;11.00;2.70;;;5.30;99.90;;;;;;5037521;28;20237;-68
2022/02/01 06:19:38;;;;;;;9.80;2.43;;;5.30;99.90;;;;;;5041729;28;20191;-67
2022/02/01 06:22:05;;;;;;;14.17;3.03;;;5.30;99.90;;;;;;5038893;28;20187;-68
2022/02/01 06:24:32;;;;;;;14.57;3.30;;;5.20;99.90;;;;;;5039266;28;20207;-68
2022/02/01 06:26:57;;;;;;;14.90;2.97;;;5.30;99.90;;;;;;5066152;22;20562;-71
2022/02/01 06:29:23;;;;;;;11.30;3.00;;;5.30;99.90;;;;;;5061133;28;21148;-71
2022/02/01 06:31:49;;;;;;;7.03;2.63;;;5.20;99.90;;;;;;5061955;28;20216;-71
2022/02/01 06:34:14;;;;;;;10.90;2.80;;;5.20;99.90;;;;;;5059644;28;20198;-71
2022/02/01 06:36:40;;;;;;;10.63;2.70;;;5.20;99.90;;;;;;5041304;28;20210;-70
2022/02/01 06:39:07;;;;;;;5.40;2.47;;;5.20;99.90;;;;;;5042393;28;20566;-72
2022/02/01 06:41:35;;;;;;;11.33;3.03;;;5.20;99.90;;;;;;5040285;28;20292;-72
2022/02/01 06:44:03;;;;;;;7.40;1.97;;;5.20;99.90;;;;;;5040025;28;20916;-72
2022/02/01 06:46:29;;;;;;;15.43;4.17;;;5.20;99.90;;;;;;5036772;28;20507;-71
2022/02/01 06:48:55;;;;;;;9.50;2.73;;;5.20;99.90;;;;;;5037894;28;20477;-71
2022/02/01 06:51:22;;;;;;;10.63;2.67;;;5.10;99.90;;;;;;5040609;28;20444;-71
2022/02/01 06:53:48;;;;;;;7.30;2.50;;;5.10;99.90;;;;;;5040139;28;20172;-71
2022/02/01 06:56:28;;;;;;;9.47;2.60;;;5.10;99.90;;;;;;5041153;28;20450;-71
2022/02/01 06:58:57;;;;;;;11.20;2.67;;;5.10;99.90;;;;;;5038628;28;20434;-71
2022/02/01 07:01:24;;;;;;;14.40;3.00;;;5.00;99.90;;;;;;5035166;28;20803;-70
2022/02/01 07:03:50;;;;;;;10.53;2.70;;;5.10;99.90;;;;;;5041312;28;20423;-70
2022/02/01 07:06:16;;;;;;;7.77;3.10;;;5.10;99.90;;;;;;5033693;28;20808;-70
2022/02/01 07:08:43;;;;;;;12.90;3.00;;;5.00;99.90;;;;;;5040930;28;20442;-70
2022/02/01 07:11:10;;;;;;;7.20;2.53;;;5.10;99.90;;;;;;5037179;28;20266;-72
2022/02/01 07:13:37;;;;;;;6.47;2.33;;;5.20;99.90;;;;;;5038470;28;20437;-72
2022/02/01 07:16:03;;;;;;;6.97;2.60;;;5.10;99.90;;;;;;5039058;28;20485;-71
2022/02/01 07:18:28;;;;;;;12.43;3.20;;;5.10;99.90;;;;;;5033406;28;20525;-72
2022/02/01 07:20:54;;;;;;;8.43;2.73;;;5.00;99.90;;;;;;5035009;28;20968;-72
2022/02/01 07:23:23;;;;;;;7.73;2.87;;;4.90;99.90;;;;;;5034501;28;22166;-72
2022/02/01 07:25:51;;;;;;;10.60;2.97;;;5.00;99.90;;;;;;5035665;28;20283;-71
2022/02/01 07:28:19;;;;;;;8.80;3.37;;;5.00;99.90;;;;;;5035342;28;20426;-72
2022/02/01 07:30:46;;;;;;;6.13;2.77;;;4.90;99.90;;;;;;5035349;28;20521;-72
2022/02/01 07:33:12;;;;;;;5.07;2.83;;;4.80;99.90;;;;;;5034299;28;20465;-72
2022/02/01 07:35:38;;;;;;;13.10;3.30;;;4.90;99.90;;;;;;5037616;28;20493;-71
2022/02/01 07:38:05;;;;;;;10.80;2.90;;;5.00;99.90;;;;;;5038407;28;20803;-72
2022/02/01 07:40:32;;;;;;;8.07;3.07;;;4.90;99.90;;;;;;5036765;28;20525;-72
2022/02/01 07:42:58;;;;;;;12.80;2.73;;;5.00;99.90;;;;;;5033400;28;20434;-71
2022/02/01 07:45:28;;;;;;;5.70;2.40;;;5.00;99.90;;;;;;5038415;28;20458;-72
2022/02/01 07:48:01;;;;;;;13.27;3.63;;;5.00;99.90;;;;;;5034935;28;20447;-71
2022/02/01 07:50:28;;;;;;;12.43;4.30;;;5.00;99.90;;;;;;5029702;28;20539;-71
2022/02/01 07:52:54;;;;;;;11.20;3.47;;;5.00;99.90;;;;;;5035916;28;20426;-72
2022/02/01 07:55:19;;;;;;;7.23;3.10;;;4.90;99.90;;;;;;5034751;28;20481;-73
2022/02/01 07:57:45;;;;;;;6.67;3.33;;;4.80;99.90;;;;;;5034185;28;20189;-72
2022/02/01 08:00:12;;;;;;;10.27;3.60;;;4.90;99.90;;;;;;5034128;28;20700;-71
2022/02/01 08:02:38;;;;;;;7.70;3.57;;;5.00;99.90;;;;;;5037622;28;20676;-70
2022/02/01 08:05:04;;;;;;;9.33;2.77;;;4.90;99.90;;;;;;5029470;28;20474;-71
2022/02/01 08:07:31;;;;;;;14.10;3.50;;;4.90;99.90;;;;;;5036609;28;24215;-70
2022/02/01 08:10:00;;;;;;;14.63;3.60;;;4.90;99.90;;;;;;5040876;28;20471;-71
2022/02/01 08:18:10;;;;;;;10.83;3.83;;;4.90;99.90;;;;;;5035239;28;20446;-70
2022/02/01 08:20:31;;;;;;;6.00;2.80;;;4.90;99.90;;;;;;5033273;28;21327;-71
2022/02/01 08:23:02;;;;;;;6.20;2.77;;;4.90;99.90;;;;;;5033227;28;20451;-72
2022/02/01 08:25:32;;;;;;;10.73;3.90;;;4.80;99.90;;;;;;5031288;28;20494;-72
2022/02/01 08:28:01;;;;;;;14.53;2.70;;;4.80;99.90;;;;;;5031114;28;20894;-72
2022/02/01 08:30:28;;;;;;;10.00;3.60;;;4.90;99.90;;;;;;5050094;28;20442;-71
2022/02/01 08:32:54;;;;;;;14.13;3.13;;;4.80;99.90;;;;;;5036822;28;20572;-71
2022/02/01 08:35:20;;;;;;;10.90;4.00;;;4.80;99.90;;;;;;5031592;28;20462;-73
2022/02/01 08:37:46;;;;;;;13.40;3.03;;;4.80;99.90;;;;;;5040113;28;21047;-73
2022/02/01 08:40:13;;;;;;;9.20;3.07;;;4.90;99.90;;;;;;5033752;28;20657;-72
2022/02/01 08:42:49;;;;;;;18.93;3.20;;;4.90;99.90;;;;;;5029538;28;20468;-71
2022/02/01 08:45:22;;;;;;;8.73;2.77;;;4.90;99.90;;;;;;5033825;28;20845;-71
2022/02/01 08:47:49;;;;;;;10.53;2.70;;;4.90;99.90;;;;;;5034886;28;20438;-71
2022/02/01 08:50:17;;;;;;;13.40;3.50;;;4.90;99.90;;;;;;5033540;28;20885;-70
2022/02/01 08:52:46;;;;;;;6.80;2.63;;;4.90;99.90;;;;;;5034988;28;20470;-70
2022/02/01 08:55:21;;;;;;;7.50;3.10;;;5.00;99.90;;;;;;5034151;28;20466;-71
2022/02/01 08:57:48;;;;;;;8.90;2.63;;;5.00;99.90;;;;;;5036250;28;20437;-69
2022/02/01 09:00:16;;;;;;;6.83;2.67;;;5.00;99.90;;;;;;5037260;28;20525;-71
2022/02/01 09:02:42;;;;;;;14.37;4.07;;;5.00;99.90;;;;;;5039521;28;20518;-71
2022/02/01 09:05:09;;;;;;;11.63;3.20;;;4.90;99.90;;;;;;5038961;28;20514;-72
2022/02/01 09:07:35;;;;;;;16.80;3.07;;;4.90;99.90;;;;;;5040468;28;20429;-72
2022/02/01 09:10:01;;;;;;;10.00;3.37;;;5.00;99.90;;;;;;5036097;28;20550;-72
2022/02/01 09:12:27;;;;;;;5.50;2.80;;;5.00;99.90;;;;;;5039873;28;20437;-71
2022/02/01 09:14:53;;;;;;;7.47;2.90;;;5.00;99.90;;;;;;5037429;28;20450;-72
2022/02/01 09:17:20;;;;;;;9.20;2.60;;;5.10;99.90;;;;;;5036917;28;20450;-71
2022/02/01 09:19:46;;;;;;;18.00;2.93;;;5.10;99.90;;;;;;5040539;28;20207;-72
2022/02/01 09:22:14;;;;;;;15.33;3.00;;;5.10;99.90;;;;;;5036404;28;20430;-72
2022/02/01 09:24:41;;;;;;;8.70;2.70;;;5.10;99.90;;;;;;5036053;28;20472;-71
2022/02/01 09:27:07;;;;;;;6.17;2.37;;;5.10;99.90;;;;;;5039017;28;20481;-71
2022/02/01 09:29:33;;;;;;;5.67;2.47;;;5.10;99.90;;;;;;5036524;28;20449;-72
2022/02/01 09:32:00;;;;;;;6.47;1.97;;;5.10;99.90;;;;;;5042397;28;20444;-71
2022/02/01 09:34:26;;;;;;;6.90;2.27;;;5.10;99.90;;;;;;5038874;28;20516;-73
2022/02/01 09:36:53;;;;;;;9.83;2.90;;;5.10;99.90;;;;;;5037543;28;20465;-71
2022/02/01 09:39:20;;;;;;;8.67;2.47;;;5.10;99.90;;;;;;5034539;28;20828;-71
2022/02/01 09:41:46;;;;;;;7.30;3.93;;;5.20;99.90;;;;;;5030860;28;20446;-69
2022/02/01 09:44:12;;;;;;;17.73;3.00;;;5.20;99.90;;;;;;5034831;28;20485;-70
2022/02/01 09:46:37;;;;;;;16.67;3.43;;;5.20;99.90;;;;;;5041161;28;21059;-70
2022/02/01 09:49:11;;;;;;;8.67;2.47;;;5.30;99.90;;;;;;5036588;28;20218;-70
2022/02/01 09:51:36;;;;;;;8.07;2.20;;;5.20;99.90;;;;;;5036056;28;20215;-70
2022/02/01 09:54:02;;;;;;;4.47;2.40;;;5.30;99.90;;;;;;5033873;28;20533;-70
2022/02/01 09:56:30;;;;;;;7.10;3.00;;;5.20;99.90;;;;;;5031854;28;20222;-71
2022/02/01 09:58:57;;;;;;;11.73;2.87;;;5.30;99.90;;;;;;5038596;28;20955;-70
2022/02/01 10:01:30;;;;;;;4.80;2.60;;;5.30;99.90;;;;;;5035130;28;20450;-71
2022/02/01 10:04:14;;;;;;;5.87;2.43;;;5.30;99.90;;;;;;5040759;28;20572;-71
2022/02/01 10:06:41;;;;;;;13.63;3.10;;;5.30;99.90;;;;;;5038845;28;20479;-70
2022/02/01 10:09:15;;;;;;;6.43;2.50;;;5.30;99.90;;;;;;5036862;28;20932;-70
2022/02/01 10:11:47;;;;;;;6.83;2.30;;;5.20;99.90;;;;;;5036696;28;20450;-71
2022/02/01 10:14:23;;;;;;;8.37;3.57;;;5.30;99.90;;;;;;5040096;28;20441;-70
2022/02/01 10:16:53;;;;;;;8.70;2.80;;;5.30;99.90;;;;;;5038734;28;20960;-71
2022/02/01 10:19:19;;;;;;;10.93;3.63;;;5.40;99.90;;;;;;5041137;28;20803;-70
2022/02/01 10:21:51;;;;;;;7.97;3.20;;;5.30;99.90;;;;;;5039922;28;20427;-70
2022/02/01 10:24:35;;;;;;;9.00;2.90;;;5.40;99.90;;;;;;5038733;28;20560;-71
2022/02/01 10:27:20;;;;;;;5.43;2.30;;;5.50;99.90;;;;;;5039123;28;20548;-71
2022/02/01 10:38:00;;;;;;;9.33;3.30;;;5.60;99.90;;;;;;5040526;28;20450;-69
2022/02/01 10:40:46;;;;;;;13.53;3.20;;;5.60;99.90;;;;;;5035805;28;20435;-71
2022/02/01 10:43:19;;;;;;;9.40;3.10;;;5.50;99.90;;;;;;5038416;28;20434;-72
2022/02/01 10:45:46;;;;;;;6.80;3.23;;;5.60;99.90;;;;;;5039613;28;20513;-71
2022/02/01 10:48:20;;;;;;;10.83;3.43;;;5.60;99.90;;;;;;5039310;28;20447;-71
2022/02/01 10:50:59;;;;;;;4.60;2.83;;;5.60;99.90;;;;;;5041643;28;20438;-71
2022/02/01 10:53:25;;;;;;;5.87;2.80;;;5.60;99.90;;;;;;5036053;28;20450;-68
2022/02/01 10:55:51;;;;;;;7.17;3.80;;;5.60;99.90;;;;;;5030225;28;20876;-68
2022/02/01 10:58:18;;;;;;;11.80;2.73;;;5.60;99.90;;;;;;5033198;28;20761;-67
2022/02/01 11:00:45;;;;;;;6.43;3.20;;;5.60;99.90;;;;;;5031003;28;20979;-68
2022/02/01 11:03:13;;;;;;;3.47;2.17;;;5.50;99.90;;;;;;5033887;28;20497;-68
2022/02/01 11:05:50;;;;;;;10.97;3.57;;;5.40;99.90;;;;;;5031406;28;20478;-68
2022/02/01 11:08:22;;;;;;;6.43;3.30;;;5.30;99.90;;;;;;5030135;28;20433;-68
2022/02/01 11:10:50;;;;;;;8.97;2.90;;;5.30;99.90;;;;;;5037512;28;20470;-68
2022/02/01 11:13:16;;;;;;;8.43;2.53;;;5.30;99.90;;;;;;5034519;28;20945;-68
2022/02/01 11:15:55;;;;;;;15.47;3.20;;;5.20;99.90;;;;;;5031993;28;20466;-68
2022/02/01 11:18:25;;;;;;;11.20;2.83;;;5.20;99.90;;;;;;5030229;28;20473;-67
2022/02/01 11:20:52;;;;;;;9.13;2.57;;;5.10;99.90;;;;;;5031949;28;20463;-68
2022/02/01 11:23:22;;;;;;;6.90;2.70;;;5.00;99.90;;;;;;5029081;28;20675;-68
2022/02/01 11:25:55;;;;;;;3.80;2.67;;;5.00;99.90;;;;;;5031407;28;20547;-68
2022/02/01 11:31:04;;;;;;;8.10;3.00;;;5.00;99.90;;;;;;5030975;28;20970;-69
2022/02/01 11:33:38;;;;;;;8.87;2.97;;;5.00;99.90;;;;;;5029351;28;20425;-68
2022/02/01 11:36:06;;;;;;;8.50;2.53;;;5.00;99.90;;;;;;5028621;28;20458;-68
2022/02/01 11:38:32;;;;;;;7.30;2.60;;;5.00;99.90;;;;;;5032072;28;20447;-69
2022/02/01 11:41:07;;;;;;;10.40;2.40;;;5.00;99.90;;;;;;5030561;28;20503;-69
2022/02/01 11:43:35;;;;;;;9.27;2.80;;;5.00;99.90;;;;;;5028514;28;20446;-69
2022/02/01 11:46:04;;;;;;;5.97;2.90;;;5.00;99.90;;;;;;5030349;28;20840;-69
2022/02/01 11:48:36;;;;;;;3.57;2.30;;;4.90;99.90;;;;;;5029710;28;20478;-69
2022/02/01 11:51:05;;;;;;;5.70;3.60;;;4.90;99.90;;;;;;5032787;28;20450;-69
2022/02/01 11:53:33;;;;;;;5.67;2.90;;;4.90;99.90;;;;;;5031834;28;20446;-70
2022/02/01 11:56:00;;;;;;;5.60;2.73;;;5.00;99.90;;;;;;5027760;28;20503;-69
2022/02/01 11:58:35;;;;;;;8.73;2.57;;;5.00;99.90;;;;;;5034491;28;20434;-68
2022/02/01 12:01:21;;;;;;;7.60;2.87;;;5.00;99.90;;;;;;5029421;28;20466;-68
2022/02/01 12:03:47;;;;;;;17.03;4.23;;;4.90;99.90;;;;;;5031832;28;20815;-69
2022/02/01 12:06:21;;;;;;;10.00;2.67;;;4.90;99.90;;;;;;5030056;28;20447;-68
2022/02/01 12:08:48;;;;;;;12.20;3.13;;;4.80;99.90;;;;;;5033000;28;20276;-68
2022/02/01 12:11:17;;;;;;;5.70;2.30;;;4.80;99.90;;;;;;5029916;28;20505;-69
2022/02/01 12:13:43;;;;;;;7.00;2.80;;;4.70;99.90;;;;;;5028436;28;20438;-68
2022/02/01 12:16:10;;;;;;;6.63;3.37;;;4.70;99.90;;;;;;5033952;28;21166;-68
2022/02/01 12:19:23;;;;;;;6.33;2.70;;;4.70;99.90;;;;;;5031948;28;20184;-69
2022/02/01 12:22:26;;;;;;;14.27;4.33;;;4.70;99.90;;;;;;5010616;28;20447;-68
2022/02/01 12:25:10;;;;;;;4.90;2.33;;;4.70;99.90;;;;;;5034068;28;20528;-69
2022/02/01 12:27:41;;;;;;;2.67;1.90;;;4.70;99.90;;;;;;5031153;28;20445;-68
2022/02/01 12:30:09;;;;;;;5.33;2.17;;;4.70;99.90;;;;;;5032333;28;20499;-69
2022/02/01 12:32:35;;;;;;;9.83;2.60;;;4.70;99.90;;;;;;5034782;28;20493;-69
2022/02/01 12:35:02;;;;;;;3.87;2.80;;;4.60;99.90;;;;;;5037357;28;21007;-70
2022/02/01 12:37:29;;;;;;;9.20;2.40;;;4.50;99.90;;;;;;5034469;28;20456;-69
2022/02/01 12:40:04;;;;;;;10.27;3.17;;;4.50;99.90;;;;;;5034143;28;20439;-70
2022/02/01 12:42:43;;;;;;;16.30;3.57;;;4.50;99.90;;;;;;5035847;28;20436;-68
2022/02/01 12:48:00;;;;;;;4.30;3.20;;;4.40;99.90;;;;;;5034294;28;21191;-70
2022/02/01 12:50:26;;;;;;;7.10;2.50;;;4.40;99.90;;;;;;5035878;28;20458;-69
2022/02/01 12:52:57;;;;;;;8.20;3.20;;;4.30;99.90;;;;;;5034776;28;20431;-69
2022/02/01 12:55:25;;;;;;;6.40;3.73;;;4.40;99.90;;;;;;5038697;28;20211;-68
2022/02/01 12:57:51;;;;;;;3.33;1.90;;;4.40;99.90;;;;;;5034931;28;20430;-68
2022/02/01 13:00:19;;;;;;;7.83;3.13;;;4.40;99.90;;;;;;5033642;28;20434;-71
2022/02/01 13:02:45;;;;;;;5.40;3.93;;;4.30;99.90;;;;;;5035183;28;20798;-67
2022/02/01 13:05:15;;;;;;;3.63;2.37;;;4.20;99.90;;;;;;5034515;28;20470;-67
2022/02/01 13:08:10;;;;;;;8.43;2.83;;;4.10;99.90;;;;;;5036350;28;20435;-68
2022/02/01 13:21:08;;;;;;;8.37;3.07;;;3.80;99.90;;;;;;5038472;28;20470;-71
2022/02/01 13:23:41;;;;;;;5.27;2.30;;;3.70;99.90;;;;;;5035192;28;20908;-69
2022/02/01 13:26:14;;;;;;;10.33;3.10;;;3.80;99.90;;;;;;5036721;28;20480;-68
2022/02/01 13:28:41;;;;;;;4.53;2.13;;;3.80;99.90;;;;;;5035085;28;20549;-69
2022/02/01 13:31:15;;;;;;;14.20;3.40;;;3.70;99.90;;;;;;5037535;28;20431;-69
2022/02/01 13:33:54;;;;;;;8.10;3.60;;;3.70;99.90;;;;;;5038298;28;20430;-69
2022/02/01 13:36:20;;;;;;;12.10;3.63;;;3.70;99.90;;;;;;5035557;28;20531;-69
2022/02/01 13:38:55;;;;;;;7.43;2.50;;;3.70;99.90;;;;;;5038151;28;20956;-69
2022/02/01 13:41:26;;;;;;;7.97;4.97;;;3.50;99.90;;;;;;5040273;28;20417;-70
2022/02/01 13:43:57;;;;;;;13.70;5.30;;;3.50;99.90;;;;;;5038029;28;20504;-69
2022/02/01 13:46:24;;;;;;;6.63;3.73;;;3.50;99.90;;;;;;5038074;28;20441;-69
2022/02/01 13:49:05;;;;;;;6.93;3.27;;;3.50;99.90;;;;;;5037342;28;20426;-70
2022/02/01 13:51:31;;;;;;;12.63;3.13;;;3.60;99.90;;;;;;5034355;28;20427;-70
2022/02/01 13:54:02;;;;;;;8.80;4.83;;;3.50;99.90;;;;;;5035387;28;20775;-70
2022/02/01 13:56:30;;;;;;;7.57;2.90;;;3.60;99.90;;;;;;5035892;28;20458;-68
2022/02/01 13:59:09;;;;;;;10.63;4.10;;;3.40;99.90;;;;;;5041623;28;20915;-68
2022/02/01 14:01:37;;;;;;;5.90;4.53;;;3.40;99.90;;;;;;5038409;28;20513;-69
2022/02/01 14:04:12;;;;;;;9.20;3.43;;;3.40;99.90;;;;;;5034517;28;20588;-69
2022/02/01 14:16:05;;;;;;;7.13;3.43;;;3.30;99.90;;;;;;5037410;28;20464;-70
2022/02/01 14:25:51;;;;;;;6.57;3.90;;;3.30;99.90;;;;;;5038770;28;20854;-70
2022/02/01 14:28:28;;;;;;;17.03;4.23;;;3.30;99.90;;;;;;5039134;28;20674;-71
2022/02/01 14:36:20;;;;;;;4.33;2.63;;;3.30;99.90;;;;;;5040636;28;21110;-70
2022/02/01 14:46:33;;;;;;;10.50;2.80;;;3.30;99.90;;;;;;5039298;28;20454;-72
2022/02/01 14:48:59;;;;;;;7.47;3.17;;;3.30;99.90;;;;;;5042449;28;20700;-73
2022/02/01 14:51:25;;;;;;;4.90;2.20;;;3.40;99.90;;;;;;5037337;28;20376;-72
2022/02/01 14:53:50;;;;;;;8.23;2.90;;;3.40;99.90;;;;;;5036199;28;20191;-72
2022/02/01 14:56:37;;;;;;;5.97;3.03;;;3.40;99.90;;;;;;5034583;28;20307;-72
2022/02/01 15:05:02;;;;;;;4.63;2.80;;;3.40;99.90;;;;;;5035547;28;20477;-71
2022/02/01 15:07:51;;;;;;;12.77;3.40;;;3.40;99.90;;;;;;5032667;28;20508;-70
2022/02/01 15:12:59;;;;;;;5.20;2.90;;;3.40;99.90;;;;;;5042733;28;20441;-71
2022/02/01 15:15:25;;;;;;;2.63;2.20;;;3.40;99.90;;;;;;5036297;28;20464;-71
2022/02/01 15:17:50;;;;;;;3.57;2.43;;;3.40;99.90;;;;;;5042870;28;20439;-69
2022/02/01 15:20:16;;;;;;;5.40;2.50;;;3.40;99.90;;;;;;5036780;28;20214;-71
2022/02/01 15:22:44;;;;;;;5.23;2.77;;;3.40;99.90;;;;;;5035809;28;20204;-71
2022/02/01 15:25:09;;;;;;;4.57;2.30;;;3.40;99.90;;;;;;5036364;28;20224;-71
2022/02/01 15:27:36;;;;;;;4.33;2.67;;;3.40;99.90;;;;;;5034246;28;20966;-71
2022/02/01 15:30:04;;;;;;;2.50;2.10;;;3.40;99.90;;;;;;5038791;28;20196;-72
2022/02/01 15:32:29;;;;;;;4.07;2.20;;;3.40;99.90;;;;;;5032487;28;20445;-70
2022/02/01 15:34:55;;;;;;;9.13;3.00;;;3.40;99.90;;;;;;5035219;28;20449;-71
2022/02/01 15:37:26;;;;;;;3.47;2.30;;;3.40;99.90;;;;;;5035308;28;20246;-71